This is the latest recevied weather packets stored in our database for station/object Kirchdorf. If no packets are shown the sender has not sent any weather packets the latest 10 day(s).
| Time | Temp. | Humidity | Pressure | Rain* | Wind** | Luminosity | Snow |
|---|---|---|---|---|---|---|---|
| 1787610731 | 16.11° C | 68% | 1012.4 hPa | 0 mm | - | - | - |
| 1787607132 | 16.67° C | 67% | 1012.9 hPa | 0 mm | - | - | - |
| 1787605336 | 17.78° C | 64% | 1012.8 hPa | 0 mm | - | - | - |
| 1787603530 | 18.33° C | 64% | 1013.5 hPa | 0 mm | - | - | - |
| 1787601731 | 18.89° C | 62% | 1013.6 hPa | 0 mm | - | - | - |
| 1787599931 | 18.89° C | 62% | 1014.2 hPa | 0 mm | - | - | - |
| 1787598131 | 19.44° C | 61% | 1014.3 hPa | 0 mm | - | - | - |
| 1787596330 | 20° C | 61% | 1014.1 hPa | 0 mm | - | - | - |
| 1787594531 | 20.56° C | 61% | 1014 hPa | 0 mm | - | - | - |
| 1787592731 | 21.11° C | 60% | 1014.5 hPa | 0 mm | - | - | - |
| 1787590931 | 21.11° C | 61% | 1014.6 hPa | 0 mm | - | - | - |
| 1787589130 | 21.67° C | 59% | 1015.3 hPa | 0 mm | - | - | - |
| 1787587330 | 22.22° C | 58% | 1015.9 hPa | 0 mm | - | - | - |
| 1787585530 | 22.78° C | 56% | 1016 hPa | 0 mm | - | - | - |
| 1787583731 | 23.33° C | 55% | 1016.4 hPa | 0 mm | - | - | - |
| 1787581930 | 23.33° C | 54% | 1016.8 hPa | 0 mm | - | - | - |
| 1787580131 | 24.44° C | 51% | 1017.3 hPa | 0 mm | - | - | - |
| 1787578331 | 23.89° C | 51% | 1017.7 hPa | 0 mm | - | - | - |
| 1787576530 | 23.89° C | 52% | 1017.9 hPa | 0 mm | - | - | - |
| 1787574730 | 23.33° C | 54% | 1018.4 hPa | 0 mm | - | - | - |
| 1787572930 | 23.33° C | 52% | 1018.5 hPa | 0 mm | - | - | - |
| 1787571130 | 22.78° C | 54% | 1018.8 hPa | 0 mm | - | - | - |
| 1787569330 | 22.78° C | 53% | 1019 hPa | 0 mm | - | - | - |
| 1787567530 | 21.67° C | 56% | 1019.3 hPa | 0 mm | - | - | - |
| 1787565730 | 21.67° C | 56% | 1019.7 hPa | 0 mm | - | - | - |
* Rain since midnight (hover to see other rain measurements)
** Current wind speed in m/s (hover to see current wind gust speed)